Time;durP1;ratioP1;P1;durP2;ratioP2;P2;SDS_P1;SDS_P2;PMS_P1;PMS_P2;Temp;Humidity;BMP_temperature;BMP_pressure;BME280_temperature;BME280_humidity;BME280_pressure;Samples;Min_cycle;Max_cycle;Signal;HPM_P1;HPM_P2
2022/01/02 00:01:28;;;;;;;23.67;18.40;;;5.40;99.90;;;;;;5012067;28;20943;-67
2022/01/02 00:04:02;;;;;;;25.30;17.90;;;5.40;99.90;;;;;;5008571;28;20533;-67
2022/01/02 00:06:32;;;;;;;25.10;16.80;;;5.30;99.90;;;;;;5008549;28;20486;-68
2022/01/02 00:09:03;;;;;;;25.37;18.93;;;5.30;99.90;;;;;;5008965;28;20456;-69
2022/01/02 00:11:30;;;;;;;24.33;18.10;;;5.40;99.90;;;;;;5008636;28;20557;-68
2022/01/02 00:14:05;;;;;;;27.20;18.83;;;5.50;99.90;;;;;;5009497;28;20448;-68
2022/01/02 00:16:34;;;;;;;29.30;19.20;;;5.50;99.90;;;;;;5008391;28;20545;-68
2022/01/02 00:19:08;;;;;;;23.40;18.13;;;5.50;99.90;;;;;;5008508;28;20474;-68
2022/01/02 00:21:44;;;;;;;21.70;16.50;;;5.50;99.90;;;;;;5008146;28;21220;-67
2022/01/02 00:24:14;;;;;;;27.77;18.83;;;5.50;99.90;;;;;;5007580;28;20560;-67
2022/01/02 00:26:43;;;;;;;22.77;17.07;;;5.40;99.90;;;;;;5007375;28;20498;-68
2022/01/02 00:29:12;;;;;;;19.80;17.70;;;5.40;99.90;;;;;;5008818;28;20454;-67
2022/01/02 00:31:40;;;;;;;21.97;17.90;;;5.40;99.90;;;;;;5012363;28;20956;-68
2022/01/02 00:34:08;;;;;;;24.47;17.67;;;5.40;99.90;;;;;;5007479;28;20462;-68
2022/01/02 00:36:37;;;;;;;22.13;17.13;;;5.40;99.90;;;;;;5006883;28;20454;-68
2022/01/02 00:39:06;;;;;;;23.43;18.40;;;5.50;99.90;;;;;;5007783;28;20474;-68
2022/01/02 00:41:39;;;;;;;24.77;18.30;;;5.50;99.90;;;;;;5007461;28;20458;-68
2022/01/02 00:44:14;;;;;;;21.23;16.93;;;5.40;99.90;;;;;;5007197;28;20461;-68
2022/01/02 00:46:50;;;;;;;22.07;16.73;;;5.30;99.90;;;;;;5007769;28;20521;-68
2022/01/02 00:49:24;;;;;;;20.50;16.00;;;5.30;99.90;;;;;;5008237;28;20849;-67
2022/01/02 00:51:59;;;;;;;19.53;15.17;;;5.20;99.90;;;;;;5008762;28;21133;-67
2022/01/02 00:54:29;;;;;;;21.63;16.53;;;5.20;99.90;;;;;;5008213;28;20448;-67
2022/01/02 00:57:02;;;;;;;22.00;17.30;;;5.10;99.90;;;;;;5007074;28;20458;-67
2022/01/02 00:59:31;;;;;;;19.47;16.17;;;5.10;99.90;;;;;;5021336;28;21249;-67
2022/01/02 01:02:03;;;;;;;22.07;16.50;;;5.10;99.90;;;;;;5009164;28;20527;-67
2022/01/02 01:04:32;;;;;;;20.03;16.57;;;5.10;99.90;;;;;;5001424;28;20442;-67
2022/01/02 01:07:06;;;;;;;21.80;16.70;;;5.10;99.90;;;;;;5007840;28;20865;-67
2022/01/02 01:09:34;;;;;;;22.87;17.77;;;5.10;99.90;;;;;;5002000;28;20454;-66
2022/01/02 01:12:03;;;;;;;24.57;17.43;;;5.10;99.90;;;;;;5007815;28;20449;-67
2022/01/02 01:14:31;;;;;;;21.50;17.23;;;5.00;99.90;;;;;;5007325;28;21445;-67
2022/01/02 01:16:58;;;;;;;20.40;16.70;;;5.00;99.90;;;;;;5007312;28;20469;-67
2022/01/02 01:19:26;;;;;;;21.00;16.63;;;5.00;99.90;;;;;;5007759;28;20518;-68
2022/01/02 01:21:53;;;;;;;19.40;14.83;;;5.00;99.90;;;;;;5008221;28;20442;-69
2022/01/02 01:24:22;;;;;;;20.73;15.17;;;5.00;99.90;;;;;;5009570;28;20931;-68
2022/01/02 01:26:52;;;;;;;20.50;16.33;;;5.00;99.90;;;;;;5008808;28;20493;-69
2022/01/02 01:29:19;;;;;;;18.70;15.80;;;4.90;99.90;;;;;;5008997;28;20451;-68
2022/01/02 01:31:46;;;;;;;22.93;17.33;;;4.90;99.90;;;;;;5009844;28;20454;-68
2022/01/02 01:34:13;;;;;;;19.80;15.50;;;4.80;99.90;;;;;;5009113;28;20464;-68
2022/01/02 01:36:40;;;;;;;20.53;16.23;;;4.80;99.90;;;;;;5009688;28;20555;-67
2022/01/02 01:39:07;;;;;;;20.00;16.00;;;4.80;99.90;;;;;;5010274;28;20446;-67
2022/01/02 01:41:38;;;;;;;23.47;17.30;;;4.80;99.90;;;;;;5010345;28;20805;-67
2022/01/02 01:44:08;;;;;;;23.10;19.03;;;4.80;99.90;;;;;;5010016;28;20450;-67
2022/01/02 01:46:37;;;;;;;23.10;16.90;;;4.80;99.90;;;;;;5009942;28;20492;-67
2022/01/02 01:49:15;;;;;;;19.37;16.27;;;4.90;99.90;;;;;;5013451;28;20445;-68
2022/01/02 01:51:42;;;;;;;22.37;17.00;;;4.90;99.90;;;;;;5012947;28;20438;-67
2022/01/02 01:54:09;;;;;;;20.57;15.60;;;4.80;99.90;;;;;;5010719;28;20488;-69
2022/01/02 01:56:38;;;;;;;19.13;15.37;;;4.70;99.90;;;;;;5008568;28;20445;-68
2022/01/02 01:59:05;;;;;;;21.07;16.50;;;4.60;99.90;;;;;;5008886;28;20448;-70
2022/01/02 02:01:32;;;;;;;19.20;16.70;;;4.60;99.90;;;;;;5009061;28;20449;-70
2022/01/02 02:04:00;;;;;;;24.60;18.70;;;4.50;99.90;;;;;;5009109;28;20449;-67
2022/01/02 02:06:28;;;;;;;19.80;15.87;;;4.50;99.90;;;;;;5008831;28;20482;-67
2022/01/02 02:08:57;;;;;;;20.20;15.07;;;4.50;99.90;;;;;;5008725;28;20445;-69
2022/01/02 02:11:24;;;;;;;19.60;14.23;;;4.40;99.90;;;;;;5009253;28;20837;-68
2022/01/02 02:13:52;;;;;;;24.30;17.33;;;4.40;99.90;;;;;;5009083;28;20438;-69
2022/01/02 02:16:19;;;;;;;20.10;14.90;;;4.30;99.90;;;;;;5008658;28;20434;-69
2022/01/02 02:18:46;;;;;;;18.10;14.87;;;4.20;99.90;;;;;;5008444;28;20452;-69
2022/01/02 02:21:15;;;;;;;23.03;16.03;;;4.20;99.90;;;;;;5008987;28;20482;-70
2022/01/02 02:23:44;;;;;;;20.00;15.37;;;4.20;99.90;;;;;;5008710;28;20556;-69
2022/01/02 02:26:11;;;;;;;23.43;16.57;;;4.20;99.90;;;;;;5008194;28;21053;-69
2022/01/02 02:28:38;;;;;;;21.63;15.30;;;4.30;99.90;;;;;;5008514;28;20502;-69
2022/01/02 02:31:05;;;;;;;18.60;16.40;;;4.30;99.90;;;;;;5008942;28;20450;-70
2022/01/02 02:33:32;;;;;;;21.73;15.60;;;4.20;99.90;;;;;;5008643;28;20464;-69
2022/01/02 02:35:58;;;;;;;24.13;16.20;;;4.20;99.90;;;;;;5007955;28;20446;-70
2022/01/02 02:38:27;;;;;;;16.70;14.00;;;4.10;99.90;;;;;;5008486;28;20477;-69
2022/01/02 02:40:54;;;;;;;26.37;17.10;;;4.10;99.90;;;;;;5008555;28;20462;-70
2022/01/02 02:43:27;;;;;;;22.50;16.77;;;4.10;99.90;;;;;;5008590;28;20449;-69
2022/01/02 02:51:30;;;;;;;25.13;16.43;;;4.10;99.90;;;;;;5006765;28;20433;-69
2022/01/02 02:53:58;;;;;;;20.30;16.87;;;4.20;99.90;;;;;;5007995;28;20458;-69
2022/01/02 02:56:27;;;;;;;18.03;14.77;;;4.30;99.90;;;;;;5007901;28;20482;-69
2022/01/02 02:58:56;;;;;;;20.13;15.50;;;4.30;99.90;;;;;;5007272;28;20450;-69
2022/01/02 03:01:24;;;;;;;18.87;15.47;;;4.20;99.90;;;;;;5008339;28;20538;-69
2022/01/02 03:03:51;;;;;;;21.83;15.43;;;4.10;99.90;;;;;;5008225;28;20438;-69
2022/01/02 03:06:19;;;;;;;20.03;15.50;;;4.10;99.90;;;;;;5007348;28;20478;-68
2022/01/02 03:08:48;;;;;;;17.70;15.00;;;4.10;99.90;;;;;;5008055;28;20454;-69
2022/01/02 03:11:20;;;;;;;20.30;16.20;;;4.00;99.90;;;;;;5008039;28;20546;-69
2022/01/02 03:13:49;;;;;;;19.37;15.03;;;3.90;99.90;;;;;;5008403;28;20472;-68
2022/01/02 03:16:16;;;;;;;18.00;14.77;;;4.00;99.90;;;;;;5007608;28;20917;-69
2022/01/02 03:18:44;;;;;;;23.40;15.60;;;4.00;99.90;;;;;;5007803;28;20588;-68
2022/01/02 03:21:12;;;;;;;21.47;16.50;;;4.10;99.90;;;;;;5010443;28;20454;-69
2022/01/02 03:23:39;;;;;;;18.50;14.30;;;4.10;99.90;;;;;;5011720;28;20449;-70
2022/01/02 03:26:06;;;;;;;19.30;13.90;;;4.10;99.90;;;;;;5011129;28;20490;-71
2022/01/02 03:28:35;;;;;;;19.20;14.47;;;4.10;99.90;;;;;;5012091;28;20477;-69
2022/01/02 03:31:02;;;;;;;19.23;14.90;;;4.20;99.90;;;;;;5011534;28;20549;-68
2022/01/02 03:33:29;;;;;;;21.27;16.03;;;4.30;99.90;;;;;;5011656;28;20465;-70
2022/01/02 03:35:56;;;;;;;16.67;14.50;;;4.30;99.90;;;;;;5011089;28;20458;-69
2022/01/02 03:38:23;;;;;;;19.30;15.40;;;4.40;99.90;;;;;;5011169;28;20972;-70
2022/01/02 03:40:49;;;;;;;18.23;14.70;;;4.30;99.90;;;;;;5011582;28;20805;-69
2022/01/02 03:43:16;;;;;;;19.60;15.10;;;4.30;99.90;;;;;;5011760;28;20963;-70
2022/01/02 03:45:45;;;;;;;16.70;13.93;;;4.30;99.90;;;;;;5011008;28;20550;-69
2022/01/02 03:48:12;;;;;;;23.63;15.53;;;4.30;99.90;;;;;;5011440;28;20478;-69
2022/01/02 03:50:39;;;;;;;16.00;14.30;;;4.30;99.90;;;;;;5011235;28;20446;-69
2022/01/02 03:53:06;;;;;;;19.23;14.23;;;4.30;99.90;;;;;;5011582;28;20446;-69
2022/01/02 03:55:34;;;;;;;18.57;14.20;;;4.20;99.90;;;;;;5011294;28;20449;-69
2022/01/02 03:58:01;;;;;;;16.30;14.40;;;4.20;99.90;;;;;;5011445;28;20840;-69
2022/01/02 04:00:28;;;;;;;17.33;14.17;;;4.30;99.90;;;;;;5011260;28;20815;-69
2022/01/02 04:02:56;;;;;;;16.97;13.90;;;4.30;99.90;;;;;;5011042;28;20446;-68
2022/01/02 04:05:23;;;;;;;15.90;12.60;;;4.20;99.90;;;;;;5010615;28;20525;-69
2022/01/02 04:07:50;;;;;;;16.33;13.60;;;4.10;99.90;;;;;;5010493;28;20486;-70
2022/01/02 04:10:19;;;;;;;16.90;12.57;;;4.10;99.90;;;;;;5010865;28;20803;-69
2022/01/02 04:12:47;;;;;;;18.90;14.40;;;4.00;99.90;;;;;;5010845;28;20462;-67
2022/01/02 04:15:15;;;;;;;16.83;13.70;;;3.90;99.90;;;;;;5010514;28;20450;-70
2022/01/02 04:17:43;;;;;;;19.60;14.10;;;3.90;99.90;;;;;;5010655;28;20890;-70
2022/01/02 04:20:13;;;;;;;16.10;13.90;;;3.90;99.90;;;;;;5010628;28;20529;-69
2022/01/02 04:22:40;;;;;;;16.33;13.30;;;4.00;99.90;;;;;;5010782;28;20446;-69
2022/01/02 04:25:08;;;;;;;18.70;14.43;;;4.00;99.90;;;;;;5010472;28;20473;-69
2022/01/02 04:27:36;;;;;;;16.83;12.97;;;4.10;99.90;;;;;;5010327;28;20492;-69
2022/01/02 04:30:04;;;;;;;19.93;14.87;;;4.00;99.90;;;;;;5010321;28;20446;-69
2022/01/02 04:32:30;;;;;;;19.40;14.00;;;3.90;99.90;;;;;;5010444;28;20450;-68
2022/01/02 04:34:57;;;;;;;15.60;13.13;;;3.90;99.90;;;;;;5009830;28;20454;-68
2022/01/02 04:37:25;;;;;;;15.20;12.37;;;3.80;99.90;;;;;;5010706;28;20517;-69
2022/01/02 04:39:52;;;;;;;16.90;11.47;;;3.80;99.90;;;;;;5010456;28;20828;-69
2022/01/02 04:42:19;;;;;;;18.17;13.37;;;3.80;99.90;;;;;;5010397;28;20529;-69
2022/01/02 04:44:46;;;;;;;16.43;11.77;;;3.80;99.90;;;;;;5010169;28;20451;-68
2022/01/02 04:47:13;;;;;;;16.90;12.60;;;3.80;99.90;;;;;;5010206;28;20482;-68
2022/01/02 04:49:40;;;;;;;12.70;11.40;;;3.80;99.90;;;;;;5010368;28;20442;-70
2022/01/02 04:52:06;;;;;;;17.77;13.27;;;3.80;99.90;;;;;;5010257;28;20458;-68
2022/01/02 04:54:35;;;;;;;14.80;12.50;;;3.80;99.90;;;;;;5009915;28;21224;-69
2022/01/02 04:57:01;;;;;;;15.13;12.57;;;3.80;99.90;;;;;;5009964;28;20553;-68
2022/01/02 04:59:28;;;;;;;15.00;11.70;;;3.90;99.90;;;;;;5009962;28;20453;-68
2022/01/02 05:01:55;;;;;;;17.23;13.10;;;4.00;99.90;;;;;;5009806;28;20557;-70
2022/01/02 05:04:22;;;;;;;15.73;13.10;;;4.10;99.90;;;;;;5009807;28;20456;-68
2022/01/02 05:06:49;;;;;;;22.70;14.23;;;4.10;99.90;;;;;;5009636;28;20490;-69
2022/01/02 05:09:15;;;;;;;15.93;13.40;;;4.20;99.90;;;;;;5009899;28;20537;-68
2022/01/02 05:11:44;;;;;;;19.33;13.63;;;4.30;99.90;;;;;;5009826;28;20450;-70
2022/01/02 05:14:11;;;;;;;16.77;12.93;;;4.40;99.90;;;;;;5009377;28;20848;-70
2022/01/02 05:16:38;;;;;;;20.30;12.70;;;4.50;99.90;;;;;;5009760;28;20445;-68
2022/01/02 05:19:05;;;;;;;20.03;14.10;;;4.60;99.90;;;;;;5009564;28;20441;-70
2022/01/02 05:21:32;;;;;;;15.23;12.47;;;4.60;99.90;;;;;;5009820;28;20934;-68
2022/01/02 05:23:59;;;;;;;17.87;12.93;;;4.60;99.90;;;;;;5009993;28;20450;-68
2022/01/02 05:26:26;;;;;;;19.50;14.37;;;4.50;99.90;;;;;;5009143;28;20492;-69
2022/01/02 05:28:54;;;;;;;16.93;13.73;;;4.60;99.90;;;;;;5009463;28;20461;-68
2022/01/02 05:31:20;;;;;;;16.37;12.00;;;4.60;99.90;;;;;;5010334;28;20561;-69
2022/01/02 05:33:47;;;;;;;16.83;14.00;;;4.60;99.90;;;;;;5010997;28;20450;-70
2022/01/02 05:36:14;;;;;;;16.10;12.87;;;4.70;99.90;;;;;;5010152;28;20798;-68
2022/01/02 05:38:41;;;;;;;14.67;12.53;;;4.70;99.90;;;;;;5009229;28;20481;-68
2022/01/02 05:41:08;;;;;;;15.30;13.60;;;4.70;99.90;;;;;;5009179;28;20536;-69
2022/01/02 05:43:35;;;;;;;15.37;11.90;;;4.60;99.90;;;;;;5009600;28;20545;-68
2022/01/02 05:46:05;;;;;;;17.03;11.33;;;4.60;99.90;;;;;;5010873;28;20836;-68
2022/01/02 05:48:33;;;;;;;15.13;12.17;;;4.60;99.90;;;;;;5010685;28;20470;-68
2022/01/02 05:51:01;;;;;;;17.17;12.30;;;4.70;99.90;;;;;;5009643;28;20453;-67
2022/01/02 05:53:29;;;;;;;15.10;12.03;;;4.70;99.90;;;;;;5009092;28;20446;-67
2022/01/02 05:55:56;;;;;;;15.30;12.53;;;4.70;99.90;;;;;;5008648;28;20439;-67
2022/01/02 05:58:23;;;;;;;16.60;12.80;;;4.80;99.90;;;;;;5008957;28;20458;-67
2022/01/02 06:00:50;;;;;;;15.67;11.80;;;4.80;99.90;;;;;;5009288;28;20469;-66
2022/01/02 06:03:18;;;;;;;19.23;13.67;;;4.80;99.90;;;;;;5008910;28;20456;-69
2022/01/02 06:05:45;;;;;;;14.80;11.57;;;4.70;99.90;;;;;;5008486;28;20944;-68
2022/01/02 06:08:12;;;;;;;18.40;12.23;;;4.60;99.90;;;;;;5008704;28;21015;-67
2022/01/02 06:10:39;;;;;;;13.60;11.40;;;4.70;99.90;;;;;;5008683;28;20453;-69
2022/01/02 06:13:06;;;;;;;13.93;11.53;;;4.80;99.90;;;;;;5008959;28;20458;-68
2022/01/02 06:15:32;;;;;;;14.30;11.10;;;4.80;99.90;;;;;;5008491;28;20549;-67
2022/01/02 06:17:59;;;;;;;13.97;11.57;;;4.90;99.90;;;;;;5008838;28;21003;-69
2022/01/02 06:20:28;;;;;;;14.13;11.20;;;4.90;99.90;;;;;;5008589;28;20754;-68
2022/01/02 06:22:55;;;;;;;13.30;10.53;;;4.90;99.90;;;;;;5008537;28;20446;-68
2022/01/02 06:25:22;;;;;;;15.13;10.37;;;4.90;99.90;;;;;;5008964;28;20453;-67
2022/01/02 06:27:49;;;;;;;14.90;10.93;;;4.90;99.90;;;;;;5008489;28;20569;-68
2022/01/02 06:30:17;;;;;;;13.30;10.17;;;5.00;99.90;;;;;;5008626;28;20450;-68
2022/01/02 06:32:43;;;;;;;12.60;10.50;;;5.00;99.90;;;;;;5008134;28;20450;-67
2022/01/02 06:35:10;;;;;;;14.87;11.70;;;5.00;99.90;;;;;;5007697;28;20466;-68
2022/01/02 06:37:39;;;;;;;13.73;10.90;;;5.00;99.90;;;;;;5007996;28;20454;-67
2022/01/02 06:40:07;;;;;;;12.90;10.20;;;5.00;99.90;;;;;;5008218;28;20442;-69
2022/01/02 06:42:34;;;;;;;11.03;9.43;;;5.00;99.90;;;;;;5008122;28;20532;-67
2022/01/02 06:45:01;;;;;;;11.23;10.00;;;5.00;99.90;;;;;;5008180;28;20775;-68
2022/01/02 06:47:28;;;;;;;13.00;9.40;;;5.00;99.90;;;;;;5008113;28;20855;-68
2022/01/02 06:49:55;;;;;;;12.37;9.43;;;5.10;99.90;;;;;;5008162;28;20466;-68
2022/01/02 06:52:21;;;;;;;13.07;9.80;;;5.10;99.90;;;;;;5008257;28;20538;-68
2022/01/02 06:54:53;;;;;;;10.70;9.23;;;5.20;99.90;;;;;;5008265;28;20484;-68
2022/01/02 06:57:20;;;;;;;11.40;9.00;;;5.10;99.90;;;;;;5011363;28;20473;-67
2022/01/02 06:59:48;;;;;;;12.67;9.40;;;5.10;99.90;;;;;;5011368;28;20449;-68
2022/01/02 07:02:15;;;;;;;12.37;9.40;;;5.10;99.90;;;;;;5011457;28;20446;-68
2022/01/02 07:04:42;;;;;;;10.83;9.07;;;5.00;99.90;;;;;;5010748;28;20450;-67
2022/01/02 07:07:08;;;;;;;13.00;9.90;;;5.00;99.90;;;;;;5011347;28;20500;-68
2022/01/02 07:09:35;;;;;;;10.63;9.20;;;5.00;99.90;;;;;;5011442;28;20524;-68
2022/01/02 07:12:04;;;;;;;12.13;9.13;;;5.00;99.90;;;;;;5011039;28;20450;-68
2022/01/02 07:14:31;;;;;;;13.80;8.67;;;5.00;99.90;;;;;;5010819;28;20573;-68
2022/01/02 07:16:58;;;;;;;12.03;9.73;;;4.90;99.90;;;;;;5011032;28;20464;-67
2022/01/02 07:19:26;;;;;;;11.17;9.40;;;5.00;99.90;;;;;;5010948;28;20454;-68
2022/01/02 07:21:53;;;;;;;10.60;8.60;;;4.90;99.90;;;;;;5010909;28;20967;-68
2022/01/02 07:24:21;;;;;;;12.13;9.13;;;4.90;99.90;;;;;;5010376;28;20476;-67
2022/01/02 07:26:48;;;;;;;12.50;9.50;;;4.90;99.90;;;;;;5010580;28;20462;-67
2022/01/02 07:29:16;;;;;;;13.07;9.93;;;4.90;99.90;;;;;;5010902;28;20533;-67
2022/01/02 07:31:44;;;;;;;10.47;8.97;;;5.00;99.90;;;;;;5010888;28;20931;-67
2022/01/02 07:34:11;;;;;;;11.60;8.50;;;5.00;99.90;;;;;;5010837;28;20519;-67
2022/01/02 07:36:39;;;;;;;11.63;8.73;;;4.90;99.90;;;;;;5010830;28;20454;-67
2022/01/02 07:39:07;;;;;;;9.77;8.77;;;4.90;99.90;;;;;;5011003;28;20512;-68
2022/01/02 07:41:34;;;;;;;10.40;8.80;;;5.00;99.90;;;;;;5010870;28;20451;-68
2022/01/02 07:44:03;;;;;;;11.20;9.80;;;4.90;99.90;;;;;;5010602;28;20468;-69
2022/01/02 07:46:31;;;;;;;13.47;10.03;;;4.80;99.90;;;;;;5010160;28;20450;-68
2022/01/02 07:48:58;;;;;;;9.97;8.97;;;4.80;99.90;;;;;;5010685;28;20477;-68
2022/01/02 07:51:25;;;;;;;12.63;9.63;;;4.70;99.90;;;;;;5010391;28;20446;-67
2022/01/02 07:53:52;;;;;;;11.77;9.70;;;4.70;99.90;;;;;;5010446;28;20454;-68
2022/01/02 07:56:19;;;;;;;11.70;10.30;;;4.80;99.90;;;;;;5009925;28;20462;-67
2022/01/02 07:58:46;;;;;;;12.00;9.90;;;4.80;99.90;;;;;;5010117;28;20501;-68
2022/01/02 08:01:13;;;;;;;10.33;8.93;;;4.80;99.90;;;;;;5009952;28;20537;-68
2022/01/02 08:03:41;;;;;;;10.30;9.20;;;4.90;99.90;;;;;;5010238;28;20481;-68
2022/01/02 08:06:08;;;;;;;11.13;9.40;;;5.00;99.90;;;;;;5009150;28;21218;-68
2022/01/02 08:08:35;;;;;;;10.40;9.40;;;5.10;99.90;;;;;;5009856;28;20573;-68
2022/01/02 08:11:02;;;;;;;10.00;8.67;;;5.10;99.90;;;;;;5009889;28;20456;-68
2022/01/02 08:13:29;;;;;;;13.23;10.20;;;5.20;99.90;;;;;;5009699;28;20441;-69
2022/01/02 08:15:56;;;;;;;10.17;9.10;;;5.20;99.90;;;;;;5009804;28;20450;-67
2022/01/02 08:18:22;;;;;;;12.20;9.07;;;5.30;99.90;;;;;;5009849;28;20463;-67
2022/01/02 08:20:51;;;;;;;13.03;10.47;;;5.40;99.90;;;;;;5009655;28;20454;-68
2022/01/02 08:23:18;;;;;;;13.50;9.50;;;5.40;99.90;;;;;;5009677;28;20948;-67
2022/01/02 08:25:44;;;;;;;12.00;8.63;;;5.50;99.90;;;;;;5009403;28;20830;-68
2022/01/02 08:28:11;;;;;;;10.43;8.80;;;5.50;99.90;;;;;;5009443;28;20576;-69
2022/01/02 08:30:41;;;;;;;10.23;8.63;;;5.70;99.90;;;;;;5009501;28;20446;-68
2022/01/02 08:33:08;;;;;;;10.10;7.83;;;5.90;99.90;;;;;;5009694;28;20964;-68
2022/01/02 08:35:35;;;;;;;10.90;9.70;;;6.10;99.90;;;;;;5009280;28;20842;-68
2022/01/02 08:38:03;;;;;;;11.17;9.27;;;6.30;99.90;;;;;;5009531;28;20470;-69
2022/01/02 08:40:30;;;;;;;9.77;8.77;;;6.50;99.90;;;;;;5009265;28;20827;-68
2022/01/02 08:42:57;;;;;;;10.63;8.53;;;6.80;99.90;;;;;;5009305;28;20970;-67
2022/01/02 08:45:24;;;;;;;10.90;8.40;;;6.90;99.90;;;;;;5009156;28;20450;-68
2022/01/02 08:47:51;;;;;;;9.40;8.40;;;7.00;99.90;;;;;;5009257;28;20498;-68
2022/01/02 08:50:18;;;;;;;10.60;9.40;;;7.20;99.90;;;;;;5009427;28;20883;-68
2022/01/02 08:52:45;;;;;;;11.93;9.70;;;7.30;99.90;;;;;;5009180;28;21063;-68
2022/01/02 08:55:14;;;;;;;10.20;8.90;;;7.50;99.90;;;;;;5008767;28;20540;-68
2022/01/02 08:57:40;;;;;;;10.83;9.00;;;7.80;99.90;;;;;;5007704;28;20488;-68
2022/01/02 09:00:09;;;;;;;10.57;9.13;;;8.00;99.90;;;;;;5018823;28;20461;-69
2022/01/02 09:02:36;;;;;;;9.90;8.80;;;8.20;99.90;;;;;;5022946;28;20955;-67
2022/01/02 09:05:03;;;;;;;11.07;8.30;;;8.20;99.90;;;;;;5024017;28;20450;-67
2022/01/02 09:07:30;;;;;;;8.93;8.03;;;8.10;99.90;;;;;;5021240;28;20486;-69
2022/01/02 09:09:57;;;;;;;8.43;7.63;;;8.10;99.90;;;;;;5017248;28;20452;-67
2022/01/02 09:12:25;;;;;;;9.10;7.80;;;8.10;99.90;;;;;;5023763;28;21005;-68
2022/01/02 09:14:52;;;;;;;10.23;7.53;;;8.20;99.90;;;;;;5022974;28;20467;-69
2022/01/02 09:17:19;;;;;;;9.17;7.87;;;8.20;99.90;;;;;;5023781;28;21317;-68
2022/01/02 09:19:46;;;;;;;8.87;7.97;;;8.40;99.90;;;;;;5024203;28;20450;-68
2022/01/02 09:22:12;;;;;;;11.63;7.47;;;8.40;99.90;;;;;;5023025;28;20524;-68
2022/01/02 09:24:39;;;;;;;8.90;7.97;;;8.50;99.90;;;;;;5025257;28;20448;-67
2022/01/02 09:27:06;;;;;;;8.17;7.30;;;8.50;99.90;;;;;;5024869;28;20469;-68
2022/01/02 09:29:34;;;;;;;9.17;7.80;;;8.60;99.90;;;;;;5025278;28;20492;-68
2022/01/02 09:32:02;;;;;;;8.27;7.40;;;8.60;99.90;;;;;;5024287;28;20488;-68
2022/01/02 09:34:29;;;;;;;8.70;7.83;;;8.60;99.90;;;;;;5023197;28;20532;-69
2022/01/02 09:36:56;;;;;;;8.70;7.57;;;8.80;99.90;;;;;;5024262;28;20461;-69
2022/01/02 09:39:23;;;;;;;11.20;7.63;;;9.00;99.90;;;;;;5022528;28;20449;-67
2022/01/02 09:41:50;;;;;;;9.87;7.50;;;9.10;99.90;;;;;;5023990;28;20437;-68
2022/01/02 09:44:17;;;;;;;8.30;7.50;;;9.00;99.90;;;;;;5024022;28;20441;-69
2022/01/02 09:46:46;;;;;;;9.00;7.00;;;8.90;99.90;;;;;;5014558;28;20509;-69
2022/01/02 09:49:14;;;;;;;7.90;7.10;;;9.00;99.90;;;;;;5007376;28;20466;-68
2022/01/02 09:51:41;;;;;;;8.83;7.00;;;9.00;99.90;;;;;;5008081;28;20444;-69
2022/01/02 09:54:10;;;;;;;8.30;6.97;;;9.00;99.90;;;;;;5006903;28;20442;-67
2022/01/02 09:56:37;;;;;;;7.80;6.80;;;9.00;99.90;;;;;;5007736;28;20434;-68
2022/01/02 09:59:04;;;;;;;8.07;6.63;;;9.10;99.90;;;;;;5006643;28;20456;-68
2022/01/02 10:01:32;;;;;;;8.47;7.53;;;9.20;99.90;;;;;;4999392;28;20461;-68
2022/01/02 10:04:01;;;;;;;9.27;8.37;;;9.30;99.90;;;;;;5002240;28;21160;-67
2022/01/02 10:06:40;;;;;;;10.43;7.70;;;9.50;99.90;;;;;;5005261;28;20447;-68
2022/01/02 10:09:11;;;;;;;9.87;7.17;;;9.50;99.90;;;;;;5000662;28;20494;-69
2022/01/02 10:11:40;;;;;;;8.07;7.27;;;9.60;99.90;;;;;;5000739;28;20987;-69
2022/01/02 10:14:09;;;;;;;7.63;6.80;;;9.80;99.90;;;;;;4998929;28;20458;-68
2022/01/02 10:16:38;;;;;;;7.87;7.07;;;9.90;99.90;;;;;;4998996;28;20460;-69
2022/01/02 10:19:21;;;;;;;7.40;6.63;;;9.90;99.90;;;;;;5002110;28;20810;-68
2022/01/02 10:21:54;;;;;;;7.83;7.03;;;9.80;99.90;;;;;;5003893;28;22000;-68
2022/01/02 10:24:23;;;;;;;7.87;7.07;;;9.80;99.90;;;;;;5005332;28;20455;-68
2022/01/02 10:27:11;;;;;;;9.70;7.30;;;9.70;99.90;;;;;;4993700;28;20478;-68
2022/01/02 10:29:44;;;;;;;8.40;7.10;;;9.70;99.90;;;;;;4996965;28;20481;-69
2022/01/02 10:32:32;;;;;;;10.50;8.10;;;9.50;99.90;;;;;;5004511;28;21163;-68
2022/01/02 10:35:15;;;;;;;13.50;10.40;;;9.30;99.90;;;;;;4991585;28;20454;-68
2022/01/02 10:37:45;;;;;;;8.07;7.27;;;9.30;99.90;;;;;;4998179;28;20502;-68
2022/01/02 10:40:31;;;;;;;8.63;7.67;;;9.20;99.90;;;;;;5006033;28;20456;-68
2022/01/02 10:42:58;;;;;;;8.03;7.23;;;9.30;99.90;;;;;;5005803;28;20447;-69
2022/01/02 10:45:33;;;;;;;8.53;7.20;;;9.20;99.90;;;;;;5006639;28;20453;-68
2022/01/02 10:48:00;;;;;;;9.70;7.37;;;9.10;99.90;;;;;;5006351;28;20484;-69
2022/01/02 10:50:29;;;;;;;8.93;8.03;;;9.00;99.90;;;;;;5007126;28;20442;-69
2022/01/02 10:52:56;;;;;;;8.97;7.87;;;9.00;99.90;;;;;;5006858;28;20461;-69
2022/01/02 10:55:25;;;;;;;8.27;7.00;;;9.20;99.90;;;;;;5004347;28;20451;-68
2022/01/02 10:57:54;;;;;;;10.70;9.60;;;9.30;99.90;;;;;;4999868;28;20474;-69
2022/01/02 11:00:23;;;;;;;9.90;8.60;;;9.40;99.90;;;;;;4997655;28;20454;-68
2022/01/02 11:02:50;;;;;;;11.00;9.87;;;9.40;99.90;;;;;;5001472;28;20461;-68
2022/01/02 11:05:19;;;;;;;14.10;9.60;;;9.60;99.90;;;;;;5014849;28;20454;-68
2022/01/02 11:07:49;;;;;;;9.70;8.70;;;9.70;99.90;;;;;;5008007;28;20469;-68
2022/01/02 11:10:17;;;;;;;10.83;9.43;;;9.80;99.90;;;;;;5021841;28;20480;-68
2022/01/02 11:12:45;;;;;;;9.90;8.10;;;10.00;99.90;;;;;;5010006;28;20447;-69
2022/01/02 11:15:15;;;;;;;8.53;7.33;;;10.20;99.90;;;;;;5007282;28;20454;-69
2022/01/02 11:17:42;;;;;;;8.43;7.53;;;10.20;99.90;;;;;;5006627;28;20528;-68
2022/01/02 11:20:11;;;;;;;8.57;7.10;;;10.10;99.90;;;;;;5007338;28;20449;-69
2022/01/02 11:22:44;;;;;;;7.83;6.70;;;10.00;99.90;;;;;;5007388;28;20533;-67
2022/01/02 11:25:19;;;;;;;9.80;6.67;;;10.00;99.90;;;;;;5007410;28;20557;-69
2022/01/02 11:27:53;;;;;;;7.10;5.67;;;10.00;99.90;;;;;;5005949;28;20476;-68
2022/01/02 11:30:40;;;;;;;8.27;5.87;;;10.00;99.90;;;;;;5001733;28;20544;-71
2022/01/02 11:33:09;;;;;;;7.27;6.20;;;10.10;99.90;;;;;;5002882;28;20447;-70
2022/01/02 11:35:38;;;;;;;6.90;6.20;;;10.20;99.90;;;;;;5002493;28;21110;-69
2022/01/02 11:38:06;;;;;;;6.70;6.00;;;10.20;99.90;;;;;;5005145;28;20478;-70
2022/01/02 11:40:58;;;;;;;8.63;6.87;;;10.30;99.90;;;;;;5007093;28;20940;-69
2022/01/02 11:43:52;;;;;;;7.47;6.30;;;10.30;99.90;;;;;;5006591;28;20450;-69
2022/01/02 11:46:22;;;;;;;9.87;6.80;;;10.10;99.90;;;;;;5003845;28;20461;-70
2022/01/02 11:49:15;;;;;;;7.70;6.90;;;10.10;99.90;;;;;;4999888;28;20486;-70
2022/01/02 11:52:12;;;;;;;8.33;6.60;;;10.00;99.90;;;;;;5001591;28;20972;-70
2022/01/02 11:54:53;;;;;;;7.50;6.50;;;10.00;99.90;;;;;;5007198;28;20464;-69
2022/01/02 11:57:55;;;;;;;7.73;5.97;;;10.00;99.90;;;;;;5026388;28;20503;-71
2022/01/02 12:00:43;;;;;;;7.43;6.30;;;10.00;99.90;;;;;;5020337;28;21200;-70
2022/01/02 12:03:47;;;;;;;11.43;7.17;;;10.00;99.90;;;;;;5024349;28;20822;-70
2022/01/02 12:06:33;;;;;;;8.30;5.90;;;10.00;99.90;;;;;;5013421;28;20465;-70
2022/01/02 12:09:00;;;;;;;10.30;6.67;;;10.10;99.90;;;;;;5016265;28;20485;-69
2022/01/02 12:11:44;;;;;;;7.27;6.40;;;10.10;99.90;;;;;;5018316;28;20446;-70
2022/01/02 12:14:19;;;;;;;7.60;5.57;;;10.10;99.90;;;;;;5018510;28;20549;-70
2022/01/02 12:17:10;;;;;;;7.27;6.10;;;10.10;99.90;;;;;;5009357;28;20448;-71
2022/01/02 12:20:01;;;;;;;7.60;5.97;;;10.20;99.90;;;;;;5014553;28;20499;-70
2022/01/02 12:22:45;;;;;;;7.60;6.03;;;10.40;99.90;;;;;;5019414;28;21148;-71
2022/01/02 12:25:14;;;;;;;8.40;4.70;;;10.50;99.90;;;;;;5021114;28;20449;-68
2022/01/02 12:27:55;;;;;;;6.30;5.40;;;10.70;99.90;;;;;;5022016;28;21093;-68
2022/01/02 12:30:24;;;;;;;6.60;4.83;;;11.10;99.90;;;;;;5019248;28;20597;-69
2022/01/02 12:32:51;;;;;;;4.83;4.13;;;11.50;99.90;;;;;;5013273;28;20450;-68
2022/01/02 12:35:18;;;;;;;6.03;4.13;;;11.90;99.90;;;;;;5012871;28;20979;-69
2022/01/02 12:37:46;;;;;;;6.40;5.10;;;12.30;99.90;;;;;;5021488;28;20480;-69
2022/01/02 12:40:18;;;;;;;6.50;4.70;;;12.70;99.90;;;;;;5020879;28;20515;-67
2022/01/02 12:42:46;;;;;;;5.63;4.70;;;13.00;99.90;;;;;;5021352;28;20501;-68
2022/01/02 12:45:16;;;;;;;6.53;3.80;;;13.20;99.90;;;;;;5020060;28;20445;-67
2022/01/02 12:47:54;;;;;;;6.97;4.87;;;13.60;99.90;;;;;;5021316;28;20461;-68
2022/01/02 12:50:29;;;;;;;6.00;4.40;;;14.00;99.90;;;;;;5005577;28;20478;-68
2022/01/02 12:52:57;;;;;;;7.27;4.67;;;14.30;99.90;;;;;;4998285;28;20497;-68
2022/01/02 12:55:26;;;;;;;5.03;3.97;;;14.60;99.90;;;;;;5007461;28;20932;-68
2022/01/02 12:58:03;;;;;;;5.37;3.57;;;14.80;99.90;;;;;;5009727;28;20553;-70
2022/01/02 13:00:30;;;;;;;4.33;3.80;;;14.90;99.90;;;;;;5001019;28;20461;-70